Ironton, Louisiana
Current Conditions -  °F | °C
As of 3:02 PM on Sunday 21 Dec 2014 (Local Time) from KNBG Reporting Station
Overcast Overcast  
Wind Chill: 60°   Ceiling: 1500
Heat Index: 60°   Visibility: 10mi
Dew Point: 53°   Wind: 0mph
Humidity: 78%   Direction: NA
Pressure: 30.01"   Gusts: NA
Location:  29.4927°N, 89.8165°W
Report Text: KNBG 212102Z 00000KT 10SM BKN015 BKN035 OVC120 16/12 A3001 RMK AO2 T01560117 $
Loading
Personal Weather Stations






























Interactive Weather Map New forecast layout! Learn more

10-Day Weather Forecast

Advertisements
Track Severe Weather on mobile